Time;durP1;ratioP1;P1;durP2;ratioP2;P2;SDS_P1;SDS_P2;PMS_P1;PMS_P2;Temp;Humidity;BMP_temperature;BMP_pressure;BME280_temperature;BME280_humidity;BME280_pressure;Samples;Min_cycle;Max_cycle;Signal;HPM_P1;HPM_P2
2023/03/12 00:04:41;;;;;;;16.63;8.55;;;3.10;99.90;;;;;;20635265;28;20078;-78
2023/03/12 00:14:42;;;;;;;13.90;8.25;;;3.10;99.90;;;;;;20634640;28;20035;-77
2023/03/12 00:24:43;;;;;;;15.63;8.68;;;3.20;99.90;;;;;;20634130;28;20065;-78
2023/03/12 00:34:49;;;;;;;21.60;7.50;;;3.30;99.90;;;;;;20630667;28;20178;-78
2023/03/12 00:44:49;;;;;;;11.60;7.00;;;3.40;99.90;;;;;;20599858;28;20113;-78
2023/03/12 00:54:50;;;;;;;13.77;7.85;;;3.40;99.90;;;;;;20592934;28;20042;-77
2023/03/12 01:04:51;;;;;;;20.92;9.15;;;3.40;99.90;;;;;;20619830;28;20555;-78
2023/03/12 01:14:52;;;;;;;20.30;9.65;;;3.50;99.90;;;;;;20683636;28;20031;-78
2023/03/12 01:24:53;;;;;;;15.40;9.20;;;3.30;99.90;;;;;;20682753;28;20088;-79
2023/03/12 01:34:54;;;;;;;15.05;8.32;;;3.40;99.90;;;;;;20619581;28;20027;-78
2023/03/12 01:45:00;;;;;;;18.15;8.68;;;3.50;99.90;;;;;;20561917;28;20474;-79
2023/03/12 01:55:05;;;;;;;18.63;9.20;;;3.60;99.90;;;;;;20574286;28;20495;-78
2023/03/12 02:05:31;;;;;;;19.33;8.88;;;3.70;99.90;;;;;;20585108;28;20110;-78
2023/03/12 02:15:34;;;;;;;19.80;9.50;;;3.60;99.90;;;;;;20566820;28;20071;-78
2023/03/12 02:25:39;;;;;;;17.42;9.50;;;3.50;99.90;;;;;;20602981;28;20114;-79
2023/03/12 02:35:41;;;;;;;16.70;9.00;;;3.60;99.90;;;;;;20568761;28;20058;-77
2023/03/12 02:45:42;;;;;;;17.50;9.77;;;3.60;99.90;;;;;;20591653;28;20035;-77
2023/03/12 02:55:43;;;;;;;15.02;8.40;;;3.50;99.90;;;;;;20611394;28;20536;-78
2023/03/12 03:05:44;;;;;;;24.33;10.35;;;3.60;99.90;;;;;;20612882;28;20069;-78
2023/03/12 03:15:45;;;;;;;20.40;10.52;;;3.50;99.90;;;;;;20601725;28;20090;-78
2023/03/12 03:25:46;;;;;;;21.27;12.00;;;3.40;99.90;;;;;;20597375;28;20039;-78
2023/03/12 03:35:48;;;;;;;24.70;12.52;;;3.30;99.90;;;;;;20598698;28;20062;-78
2023/03/12 03:46:03;;;;;;;23.92;13.00;;;3.20;99.90;;;;;;20598544;28;20034;-77
2023/03/12 03:56:14;;;;;;;24.75;13.02;;;3.20;99.90;;;;;;20591309;28;20520;-78
2023/03/12 04:06:19;;;;;;;25.48;13.55;;;3.30;99.90;;;;;;20534957;28;20038;-77
2023/03/12 04:16:20;;;;;;;36.38;16.15;;;3.30;99.90;;;;;;20514282;29;20035;-78
2023/03/12 04:26:22;;;;;;;39.50;17.77;;;3.30;99.90;;;;;;20520256;28;20027;-78
2023/03/12 04:36:23;;;;;;;37.58;16.45;;;3.30;99.90;;;;;;20609006;28;20037;-78
2023/03/12 04:46:26;;;;;;;31.98;15.23;;;3.30;99.90;;;;;;20680304;28;20504;-78
2023/03/12 04:56:27;;;;;;;35.92;14.93;;;3.30;99.90;;;;;;20667737;28;20481;-78
2023/03/12 05:06:28;;;;;;;32.13;15.23;;;3.40;99.90;;;;;;20682153;28;20500;-77
2023/03/12 05:16:30;;;;;;;31.77;14.40;;;3.50;99.90;;;;;;20660839;28;20491;-78
2023/03/12 05:26:34;;;;;;;28.55;13.50;;;3.40;99.90;;;;;;20602799;28;20043;-78
2023/03/12 05:36:43;;;;;;;27.63;13.40;;;3.50;99.90;;;;;;20595111;28;20490;-78
2023/03/12 05:46:46;;;;;;;29.63;14.45;;;3.60;99.90;;;;;;20596377;28;20031;-78
2023/03/12 05:56:46;;;;;;;25.65;12.55;;;3.70;99.90;;;;;;20605786;28;20094;-79
2023/03/12 06:06:47;;;;;;;25.23;13.15;;;3.70;99.90;;;;;;20605102;28;20394;-78
2023/03/12 06:16:48;;;;;;;30.92;13.90;;;3.70;99.90;;;;;;20600026;28;20130;-78
2023/03/12 06:26:49;;;;;;;26.73;13.00;;;3.70;99.90;;;;;;20592112;28;20039;-78
2023/03/12 06:36:50;;;;;;;26.05;12.15;;;3.90;99.90;;;;;;20586938;28;20119;-78
2023/03/12 06:46:51;;;;;;;25.35;12.52;;;4.00;99.90;;;;;;20589228;28;20509;-79
2023/03/12 06:56:52;;;;;;;;;;;4.00;99.90;;;;;;20627272;28;20037;-77
2023/03/12 07:06:53;;;;;;;26.17;12.52;;;4.20;99.90;;;;;;20626000;28;20513;-76
2023/03/12 07:16:54;;;;;;;;;;;4.40;99.90;;;;;;20515390;28;20027;-76
2023/03/12 07:26:55;;;;;;;30.70;14.30;;;4.60;99.90;;;;;;20543252;28;19977;-77
2023/03/12 07:36:56;;;;;;;;;;;4.70;99.90;;;;;;20591058;28;20027;-76
2023/03/12 07:46:57;;;;;;;24.20;12.13;;;4.70;99.90;;;;;;20590332;28;19914;-76
2023/03/12 07:56:58;;;;;;;;;;;5.00;99.90;;;;;;20588948;28;20031;-76
2023/03/12 08:06:58;;;;;;;24.17;12.83;;;5.10;99.90;;;;;;20587551;28;19918;-77
2023/03/12 08:16:59;;;;;;;34.95;14.82;;;5.40;99.90;;;;;;20587408;28;20297;-76
2023/03/12 08:27:00;;;;;;;36.40;15.32;;;5.10;99.90;;;;;;20585970;28;20034;-76
2023/03/12 08:37:01;;;;;;;;;;;5.10;99.90;;;;;;20586039;28;20042;-76
2023/03/12 08:47:02;;;;;;;32.08;16.50;;;5.10;99.90;;;;;;20588551;28;19914;-77
2023/03/12 08:57:03;;;;;;;;;;;5.40;99.90;;;;;;20585143;28;20528;-76
2023/03/12 09:07:04;;;;;;;37.92;16.92;;;5.60;99.90;;;;;;20646975;28;20303;-76
2023/03/12 09:17:05;;;;;;;51.53;21.17;;;5.50;99.90;;;;;;20553743;28;20038;-75
2023/03/12 09:27:06;;;;;;;;;;;6.00;99.90;;;;;;20511712;28;20038;-75
2023/03/12 09:37:07;;;;;;;68.78;27.65;;;6.30;99.90;;;;;;20554916;28;19910;-76
2023/03/12 09:47:14;;;;;;;33.20;15.73;;;6.50;99.90;;;;;;20618882;28;20041;-76
2023/03/12 09:57:23;;;;;;;36.47;16.55;;;6.50;99.90;;;;;;20661907;28;20379;-76
2023/03/12 10:07:42;;;;;;;33.97;15.98;;;6.60;99.90;;;;;;20610068;28;20034;-76
2023/03/12 10:17:59;;;;;;;31.27;15.18;;;6.60;99.90;;;;;;20580832;28;20034;-76
2023/03/12 10:28:12;;;;;;;37.97;17.98;;;6.50;99.90;;;;;;20594508;28;20050;-76
2023/03/12 10:38:28;;;;;;;34.25;16.58;;;6.50;99.90;;;;;;20603258;28;20043;-76
2023/03/12 10:48:29;;;;;;;30.63;14.57;;;6.80;99.90;;;;;;20591312;28;20034;-76
2023/03/12 10:58:34;;;;;;;28.77;13.30;;;6.70;99.90;;;;;;20592523;28;20038;-77
2023/03/12 11:08:36;;;;;;;23.55;11.25;;;7.20;99.90;;;;;;20593301;28;20054;-76
2023/03/12 11:18:37;;;;;;;24.13;10.18;;;7.50;99.90;;;;;;20632679;28;20043;-77
2023/03/12 11:28:48;;;;;;;18.45;9.15;;;8.40;99.90;;;;;;20588416;28;20031;-77
2023/03/12 11:39:17;;;;;;;15.40;8.75;;;8.40;99.90;;;;;;20586291;28;20077;-77
2023/03/12 11:49:27;;;;;;;18.77;7.63;;;8.60;99.90;;;;;;20586781;28;20038;-77
2023/03/12 11:59:49;;;;;;;16.17;6.80;;;9.60;99.90;;;;;;20588139;28;20482;-77
2023/03/12 12:09:56;;;;;;;9.77;3.63;;;10.70;99.90;;;;;;20660179;28;20110;-77
2023/03/12 12:20:29;;;;;;;10.63;3.08;;;10.60;99.90;;;;;;20627095;28;20035;-77
2023/03/12 12:30:35;;;;;;;11.20;3.47;;;10.40;99.90;;;;;;20563974;28;20046;-78
2023/03/12 12:40:39;;;;;;;16.95;2.28;;;10.20;99.90;;;;;;20593899;28;20129;-77
2023/03/12 12:50:41;;;;;;;20.17;5.95;;;9.80;99.90;;;;;;20639043;28;20041;-77
2023/03/12 13:00:48;;;;;;;6.45;2.10;;;10.40;99.90;;;;;;20660972;28;20193;-77
2023/03/12 13:10:49;;;;;;;10.38;2.13;;;10.30;99.90;;;;;;20581680;28;20041;-77
2023/03/12 13:20:52;;;;;;;9.07;1.83;;;10.00;99.90;;;;;;20579304;28;20031;-77
2023/03/12 13:30:56;;;;;;;8.85;1.42;;;10.30;99.90;;;;;;20579503;28;20081;-77
2023/03/12 13:41:02;;;;;;;13.88;1.75;;;10.20;99.90;;;;;;20578873;28;20054;-77
2023/03/12 13:51:22;;;;;;;6.63;1.23;;;10.30;99.90;;;;;;20580293;28;20057;-77
2023/03/12 14:01:27;;;;;;;6.97;1.73;;;10.50;99.90;;;;;;20577419;28;20027;-76
2023/03/12 14:11:53;;;;;;;4.75;1.13;;;10.50;99.90;;;;;;20560069;28;20035;-77
2023/03/12 14:21:56;;;;;;;5.93;1.05;;;11.30;99.90;;;;;;20570313;28;20042;-76
2023/03/12 14:32:06;;;;;;;6.03;0.98;;;11.40;99.90;;;;;;20593298;28;20038;-77
2023/03/12 14:42:08;;;;;;;6.82;1.23;;;11.60;99.90;;;;;;20626276;28;20125;-77
2023/03/12 14:52:13;;;;;;;9.90;1.40;;;11.50;99.90;;;;;;21392328;23;20047;-75
2023/03/12 15:02:17;;;;;;;8.57;1.10;;;11.30;99.90;;;;;;20730274;28;20041;-77
2023/03/12 15:12:24;;;;;;;6.75;1.27;;;11.50;99.90;;;;;;20883365;22;20124;-78
2023/03/12 15:22:29;;;;;;;5.78;1.35;;;11.60;99.90;;;;;;20842204;28;20456;-78
2023/03/12 15:32:30;;;;;;;10.20;1.50;;;11.70;99.90;;;;;;20916449;28;20037;-79
2023/03/12 15:42:36;;;;;;;;;;;11.70;99.90;;;;;;20895129;28;20036;-79
2023/03/12 15:52:37;;;;;;;6.15;1.08;;;11.60;99.90;;;;;;20893511;28;19908;-78
2023/03/12 16:02:57;;;;;;;7.23;1.80;;;11.90;99.90;;;;;;20914706;28;20039;-79
2023/03/12 16:13:01;;;;;;;11.07;1.75;;;11.80;99.90;;;;;;20912908;28;20040;-78
2023/03/12 16:23:03;;;;;;;13.18;3.08;;;11.60;99.90;;;;;;20872056;28;20032;-78
2023/03/12 16:33:05;;;;;;;7.67;1.97;;;11.60;99.90;;;;;;20913266;28;20025;-78
2023/03/12 16:43:12;;;;;;;8.30;1.48;;;11.40;99.90;;;;;;20902868;28;20040;-79
2023/03/12 16:53:13;;;;;;;13.07;2.42;;;11.30;99.90;;;;;;20858566;28;20096;-79
2023/03/12 17:03:22;;;;;;;3.73;1.43;;;11.20;99.90;;;;;;20918494;28;20037;-79
2023/03/12 17:13:25;;;;;;;7.53;2.17;;;11.10;99.90;;;;;;20912201;28;20437;-78
2023/03/12 17:23:26;;;;;;;7.13;1.83;;;10.60;99.90;;;;;;20884463;28;20028;-79
2023/03/12 17:33:27;;;;;;;6.20;2.67;;;10.10;99.90;;;;;;20900459;28;20387;-79
2023/03/12 17:43:28;;;;;;;9.70;2.30;;;9.70;99.90;;;;;;20869904;28;20033;-78
2023/03/12 17:53:29;;;;;;;7.43;2.00;;;9.20;99.90;;;;;;20867371;28;20033;-78
2023/03/12 18:03:29;;;;;;;11.47;2.70;;;8.70;99.90;;;;;;20870430;28;20115;-79
2023/03/12 18:13:30;;;;;;;12.13;2.90;;;8.40;99.90;;;;;;20884872;28;20652;-79
2023/03/12 18:23:31;;;;;;;12.63;3.10;;;8.10;99.90;;;;;;20885027;28;20021;-79
2023/03/12 18:33:35;;;;;;;;;;;8.40;99.90;;;;;;20829073;28;20037;-79
2023/03/12 18:43:35;;;;;;;38.22;13.95;;;8.50;99.90;;;;;;20836977;28;19948;-79
2023/03/12 18:53:36;;;;;;;19.10;6.83;;;8.60;99.90;;;;;;20883837;28;20028;-79
2023/03/12 19:03:37;;;;;;;51.23;15.87;;;8.40;99.90;;;;;;20933123;28;20769;-79
2023/03/12 19:13:38;;;;;;;28.60;8.93;;;8.30;99.90;;;;;;20936052;28;20364;-78
2023/03/12 19:23:39;;;;;;;16.10;4.10;;;7.90;99.90;;;;;;20933300;28;20290;-78
2023/03/12 19:33:41;;;;;;;15.03;2.67;;;7.20;99.90;;;;;;20932363;28;20032;-80
2023/03/12 19:43:42;;;;;;;8.38;2.53;;;6.90;99.90;;;;;;20929532;28;20033;-79
2023/03/12 19:53:43;;;;;;;11.77;2.70;;;6.90;99.90;;;;;;20919747;28;20033;-78
2023/03/12 20:03:44;;;;;;;14.37;3.90;;;7.20;99.90;;;;;;20907170;28;20841;-78
2023/03/12 20:13:44;;;;;;;14.85;3.80;;;7.40;99.90;;;;;;20835459;28;20059;-78
2023/03/12 20:23:45;;;;;;;16.03;4.73;;;7.80;99.90;;;;;;20909374;28;20438;-79
2023/03/12 20:33:46;;;;;;;139.70;50.60;;;7.90;99.90;;;;;;20919975;28;20033;-78
2023/03/12 20:43:47;;;;;;;37.77;14.20;;;7.50;99.90;;;;;;20921254;28;20135;-78
2023/03/12 20:53:48;;;;;;;29.03;7.63;;;7.50;99.90;;;;;;20922645;28;20629;-78
2023/03/12 21:03:50;;;;;;;15.63;3.93;;;7.50;99.90;;;;;;20915515;28;20028;-78
2023/03/12 21:13:51;;;;;;;9.30;2.47;;;7.90;99.90;;;;;;20888569;28;20398;-79
2023/03/12 21:23:51;;;;;;;10.75;2.38;;;8.00;99.90;;;;;;20890565;28;20120;-78
2023/03/12 21:33:56;;;;;;;15.60;3.60;;;8.00;99.90;;;;;;20909299;28;20028;-77
2023/03/12 21:44:00;;;;;;;41.97;11.02;;;7.70;99.90;;;;;;20907224;28;20068;-77
2023/03/12 21:54:00;;;;;;;22.67;5.95;;;7.60;99.90;;;;;;20870348;28;20502;-77
2023/03/12 22:04:02;;;;;;;14.20;3.33;;;7.50;99.90;;;;;;20824760;28;20049;-78
2023/03/12 22:14:03;;;;;;;12.70;2.45;;;7.70;99.90;;;;;;20824223;28;20351;-78
2023/03/12 22:24:04;;;;;;;8.35;3.30;;;7.70;99.90;;;;;;20868246;28;20029;-78
2023/03/12 22:34:04;;;;;;;15.90;3.67;;;7.90;99.90;;;;;;20903116;28;20037;-78
2023/03/12 22:44:06;;;;;;;55.13;15.53;;;8.00;99.90;;;;;;20858437;28;20487;-78
2023/03/12 22:54:07;;;;;;;5.57;2.30;;;7.90;99.90;;;;;;20894776;28;20034;-78
2023/03/12 23:04:08;;;;;;;7.87;2.10;;;7.80;99.90;;;;;;20837216;28;20087;-78
2023/03/12 23:14:08;;;;;;;17.73;5.43;;;7.80;99.90;;;;;;20836427;28;20045;-78
2023/03/12 23:24:09;;;;;;;17.40;3.53;;;7.70;99.90;;;;;;20835713;28;20029;-77
2023/03/12 23:34:10;;;;;;;12.77;2.23;;;7.30;99.90;;;;;;20851053;28;20033;-78
2023/03/12 23:44:10;;;;;;;9.33;2.20;;;7.10;99.90;;;;;;20915762;28;20403;-78
2023/03/12 23:54:11;;;;;;;11.63;2.17;;;7.10;99.90;;;;;;20915735;28;20072;-78
